createdAt,value
2023-03-12T00:02:37.707Z,429.00
2023-03-12T00:06:37.689Z,427.00
2023-03-12T00:10:37.751Z,425.00
2023-03-12T00:14:37.875Z,424.00
2023-03-12T00:18:37.919Z,425.00
2023-03-12T00:22:37.938Z,421.00
2023-03-12T00:26:38.071Z,422.00
2023-03-12T00:30:38.081Z,422.00
2023-03-12T00:34:38.149Z,421.00
2023-03-12T00:38:38.258Z,424.00
2023-03-12T00:42:38.477Z,426.00
2023-03-12T00:46:38.553Z,426.00
2023-03-12T00:50:38.536Z,430.00
2023-03-12T00:54:38.666Z,431.00
2023-03-12T00:58:38.700Z,431.00
2023-03-12T01:02:38.796Z,435.00
2023-03-12T01:06:38.925Z,436.00
2023-03-12T01:10:39.018Z,436.00
2023-03-12T01:14:39.078Z,436.00
2023-03-12T01:18:39.197Z,432.00
2023-03-12T01:22:39.263Z,430.00
2023-03-12T01:26:39.391Z,436.00
2023-03-12T01:30:39.462Z,428.00
2023-03-12T01:34:39.561Z,428.00
2023-03-12T01:38:39.680Z,430.00
2023-03-12T01:42:39.821Z,431.00
2023-03-12T01:46:39.911Z,431.00
2023-03-12T01:50:40.031Z,429.00
2023-03-12T01:54:40.173Z,424.00
2023-03-12T01:58:40.293Z,429.00
2023-03-12T02:02:40.435Z,425.00
2023-03-12T02:06:40.525Z,431.00
2023-03-12T02:10:40.672Z,435.00
2023-03-12T02:14:40.795Z,437.00
2023-03-12T02:18:40.923Z,433.00
2023-03-12T02:22:41.072Z,435.00
2023-03-12T02:26:41.196Z,435.00
2023-03-12T02:30:41.330Z,432.00
2023-03-12T02:34:41.456Z,430.00
2023-03-12T02:38:41.564Z,432.00
2023-03-12T02:42:41.713Z,431.00
2023-03-12T02:46:41.872Z,433.00
2023-03-12T02:50:42.031Z,431.00
2023-03-12T02:54:42.158Z,430.00
2023-03-12T02:58:42.261Z,432.00
2023-03-12T03:02:42.481Z,431.00
2023-03-12T03:06:42.583Z,432.00
2023-03-12T03:10:42.751Z,428.00
2023-03-12T03:14:42.869Z,430.00
2023-03-12T03:18:43.050Z,429.00
2023-03-12T03:22:43.220Z,427.00
2023-03-12T03:26:43.330Z,425.00
2023-03-12T03:30:43.549Z,426.00
2023-03-12T03:34:43.632Z,424.00
2023-03-12T03:38:43.840Z,429.00
2023-03-12T03:42:43.970Z,430.00
2023-03-12T03:46:44.146Z,417.00
2023-03-12T03:50:44.288Z,418.00
2023-03-12T03:54:44.460Z,419.00
2023-03-12T03:58:44.592Z,422.00
2023-03-12T04:02:44.735Z,424.00
2023-03-12T04:06:44.911Z,422.00
2023-03-12T04:10:45.078Z,421.00
2023-03-12T04:14:45.231Z,422.00
2023-03-12T04:18:45.428Z,421.00
2023-03-12T04:22:45.568Z,420.00
2023-03-12T04:26:45.744Z,424.00
2023-03-12T04:30:45.914Z,427.00
2023-03-12T04:34:46.093Z,426.00
2023-03-12T04:38:46.253Z,425.00
2023-03-12T04:42:46.454Z,423.00
2023-03-12T04:46:46.734Z,423.00
2023-03-12T04:50:46.871Z,423.00
2023-03-12T04:54:48.189Z,423.00
2023-03-12T04:58:47.229Z,421.00
2023-03-12T05:02:47.450Z,422.00
2023-03-12T05:06:47.555Z,427.00
2023-03-12T05:10:47.800Z,426.00
2023-03-12T05:14:47.987Z,424.00
2023-03-12T05:18:48.141Z,427.00
2023-03-12T05:22:48.351Z,427.00
2023-03-12T05:26:48.507Z,427.00
2023-03-12T05:30:48.694Z,427.00
2023-03-12T05:34:48.882Z,427.00
2023-03-12T05:38:49.063Z,429.00
2023-03-12T05:42:49.230Z,428.00
2023-03-12T05:46:49.466Z,430.00
2023-03-12T05:50:49.668Z,433.00
2023-03-12T05:54:49.848Z,432.00
2023-03-12T05:58:50.062Z,431.00
2023-03-12T06:02:50.246Z,426.00
2023-03-12T06:06:50.459Z,427.00
2023-03-12T06:10:50.625Z,423.00
2023-03-12T06:14:50.841Z,426.00
2023-03-12T06:18:51.056Z,428.00
2023-03-12T06:22:51.210Z,426.00
2023-03-12T06:26:51.419Z,426.00
2023-03-12T06:30:51.591Z,425.00
2023-03-12T06:34:51.867Z,429.00
2023-03-12T06:38:52.002Z,426.00
2023-03-12T06:42:52.223Z,426.00
2023-03-12T06:46:52.382Z,423.00
2023-03-12T06:50:52.581Z,425.00
2023-03-12T06:54:52.776Z,429.00
2023-03-12T06:58:52.984Z,427.00
2023-03-12T07:02:53.172Z,426.00
2023-03-12T07:06:53.401Z,421.00
2023-03-12T07:10:53.652Z,421.00
2023-03-12T07:14:53.734Z,422.00
2023-03-12T07:18:53.952Z,422.00
2023-03-12T07:22:54.110Z,420.00
2023-03-12T07:26:54.361Z,424.00
2023-03-12T07:30:54.499Z,426.00
2023-03-12T07:34:54.619Z,428.00
2023-03-12T07:38:54.858Z,424.00
2023-03-12T07:42:54.994Z,423.00
2023-03-12T07:46:55.396Z,428.00
2023-03-12T07:50:55.300Z,428.00
2023-03-12T07:54:55.488Z,426.00
2023-03-12T07:58:55.752Z,426.00
2023-03-12T08:02:55.878Z,427.00
2023-03-12T08:06:55.874Z,424.00
2023-03-12T08:10:55.968Z,423.00
2023-03-12T08:14:56.122Z,425.00
2023-03-12T08:18:56.211Z,427.00
2023-03-12T08:22:56.381Z,431.00
2023-03-12T08:26:56.535Z,431.00
2023-03-12T08:30:56.669Z,430.00
2023-03-12T08:34:56.791Z,430.00
2023-03-12T08:38:56.969Z,427.00
2023-03-12T08:42:57.110Z,428.00
2023-03-12T08:46:57.309Z,425.00
2023-03-12T08:50:57.460Z,426.00
2023-03-12T08:54:57.570Z,428.00
2023-03-12T08:58:57.732Z,422.00
2023-03-12T09:02:57.934Z,421.00
2023-03-12T09:06:57.980Z,423.00
2023-03-12T09:10:58.106Z,421.00
2023-03-12T09:15:03.564Z,428.00
2023-03-12T09:18:59.144Z,430.00
2023-03-12T09:22:58.100Z,425.00
2023-03-12T09:26:58.127Z,428.00
2023-03-12T09:30:58.038Z,427.00
2023-03-12T09:34:58.122Z,432.00
2023-03-12T09:38:58.199Z,430.00
2023-03-12T09:42:58.350Z,426.00
2023-03-12T09:46:58.480Z,426.00
2023-03-12T09:50:58.578Z,425.00
2023-03-12T09:54:58.717Z,426.00
2023-03-12T09:58:58.830Z,429.00
2023-03-12T10:02:58.990Z,427.00
2023-03-12T10:06:59.136Z,426.00
2023-03-12T10:10:59.275Z,424.00
2023-03-12T10:14:59.418Z,430.00
2023-03-12T10:18:59.580Z,428.00
2023-03-12T10:22:59.662Z,429.00
2023-03-12T10:26:59.798Z,431.00
2023-03-12T10:30:59.937Z,429.00
2023-03-12T10:35:00.032Z,424.00
2023-03-12T10:39:00.188Z,421.00
2023-03-12T10:43:00.312Z,426.00
2023-03-12T10:47:00.421Z,424.00
2023-03-12T10:51:00.554Z,425.00
2023-03-12T10:55:00.706Z,430.00
2023-03-12T10:59:00.802Z,426.00
2023-03-12T11:03:00.908Z,428.00
2023-03-12T11:07:01.040Z,427.00
2023-03-12T11:11:01.143Z,425.00
2023-03-12T11:15:01.235Z,424.00
2023-03-12T11:19:01.338Z,421.00
2023-03-12T11:23:01.450Z,426.00
2023-03-12T11:27:01.546Z,430.00
2023-03-12T11:31:01.699Z,424.00
2023-03-12T11:35:01.786Z,429.00
2023-03-12T11:39:01.837Z,428.00
2023-03-12T11:43:01.888Z,427.00
2023-03-12T11:47:02.075Z,421.00
2023-03-12T11:51:02.031Z,423.00
2023-03-12T11:55:02.043Z,420.00
2023-03-12T11:59:02.081Z,419.00
2023-03-12T12:03:02.283Z,420.00
2023-03-12T12:07:02.187Z,426.00
2023-03-12T12:11:02.248Z,424.00
2023-03-12T12:15:02.269Z,426.00
2023-03-12T12:19:04.525Z,428.00
2023-03-12T12:23:02.321Z,429.00
2023-03-12T12:27:02.416Z,423.00
2023-03-12T12:31:02.472Z,426.00
2023-03-12T12:35:02.533Z,427.00
2023-03-12T12:39:02.595Z,426.00
2023-03-12T12:43:02.675Z,425.00
2023-03-12T12:47:02.685Z,422.00
2023-03-12T12:51:02.739Z,425.00
2023-03-12T12:55:02.830Z,427.00
2023-03-12T12:59:02.880Z,427.00
2023-03-12T13:03:02.929Z,425.00
2023-03-12T13:07:03.008Z,428.00
2023-03-12T13:11:17.261Z,429.00
2023-03-12T13:15:04.028Z,427.00
2023-03-12T13:19:02.971Z,428.00
2023-03-12T13:23:02.959Z,435.00
2023-03-12T13:27:02.917Z,436.00
2023-03-12T13:31:02.924Z,435.00
2023-03-12T13:35:02.853Z,431.00
2023-03-12T13:39:02.824Z,431.00
2023-03-12T13:43:02.861Z,426.00
2023-03-12T13:47:03.017Z,423.00
2023-03-12T13:51:03.012Z,421.00
2023-03-12T13:55:03.118Z,424.00
2023-03-12T13:59:03.194Z,432.00
2023-03-12T14:03:03.327Z,432.00
2023-03-12T14:07:03.437Z,431.00
2023-03-12T14:11:03.537Z,434.00
2023-03-12T14:15:03.634Z,432.00
2023-03-12T14:19:03.722Z,436.00
2023-03-12T14:23:03.811Z,431.00
2023-03-12T14:27:03.905Z,430.00
2023-03-12T14:31:04.033Z,429.00
2023-03-12T14:35:04.057Z,430.00
2023-03-12T14:39:04.134Z,433.00
2023-03-12T14:43:04.180Z,429.00
2023-03-12T14:47:04.223Z,430.00
2023-03-12T14:51:04.343Z,431.00
2023-03-12T14:55:04.451Z,426.00
2023-03-12T14:59:04.432Z,424.00
2023-03-12T15:03:04.585Z,427.00
2023-03-12T15:07:04.641Z,430.00
2023-03-12T15:11:04.673Z,433.00
2023-03-12T15:15:04.738Z,432.00
2023-03-12T15:19:04.764Z,431.00
2023-03-12T15:23:04.836Z,431.00
2023-03-12T15:27:04.922Z,428.00
2023-03-12T15:31:05.068Z,422.00
2023-03-12T15:35:05.104Z,423.00
2023-03-12T15:39:05.107Z,425.00
2023-03-12T15:43:05.249Z,424.00
2023-03-12T15:47:05.328Z,421.00
2023-03-12T15:51:05.397Z,422.00
2023-03-12T15:55:05.460Z,421.00
2023-03-12T15:59:05.904Z,422.00
2023-03-12T16:03:05.627Z,422.00
2023-03-12T16:07:05.748Z,424.00
2023-03-12T16:11:05.889Z,420.00
2023-03-12T16:15:06.004Z,424.00
2023-03-12T16:19:06.119Z,427.00
2023-03-12T16:23:06.181Z,421.00
2023-03-12T16:27:06.218Z,423.00
2023-03-12T16:31:06.305Z,420.00
2023-03-12T16:35:06.391Z,422.00
2023-03-12T16:39:06.513Z,426.00
2023-03-12T16:43:06.588Z,423.00
2023-03-12T16:47:06.732Z,419.00
2023-03-12T16:51:06.812Z,422.00
2023-03-12T16:55:06.966Z,425.00
2023-03-12T16:59:07.068Z,423.00
2023-03-12T17:03:07.173Z,427.00
2023-03-12T17:07:07.272Z,425.00
2023-03-12T17:11:07.441Z,427.00
2023-03-12T17:15:07.598Z,423.00
2023-03-12T17:19:07.692Z,421.00
2023-03-12T17:23:07.849Z,419.00
2023-03-12T17:27:07.975Z,423.00
2023-03-12T17:31:08.195Z,424.00
2023-03-12T17:35:08.250Z,425.00
2023-03-12T17:39:08.384Z,423.00
2023-03-12T17:43:08.514Z,424.00
2023-03-12T17:47:08.668Z,424.00
2023-03-12T17:51:08.795Z,425.00
2023-03-12T17:55:14.672Z,422.00
2023-03-12T17:59:10.006Z,422.00
2023-03-12T18:03:08.887Z,425.00
2023-03-12T18:07:08.865Z,428.00
2023-03-12T18:11:08.977Z,423.00
2023-03-12T18:15:09.143Z,422.00
2023-03-12T18:19:09.299Z,426.00
2023-03-12T18:23:09.445Z,429.00
2023-03-12T18:27:09.618Z,430.00
2023-03-12T18:31:09.873Z,432.00
2023-03-12T18:35:09.943Z,429.00
2023-03-12T18:39:10.122Z,422.00
2023-03-12T18:43:10.296Z,423.00
2023-03-12T18:47:10.472Z,423.00
2023-03-12T18:51:10.614Z,424.00
2023-03-12T18:55:10.814Z,425.00
2023-03-12T18:59:10.955Z,427.00
2023-03-12T19:03:11.225Z,429.00
2023-03-12T19:07:11.299Z,424.00
2023-03-12T19:11:11.534Z,425.00
2023-03-12T19:15:11.680Z,423.00
2023-03-12T19:19:11.880Z,420.00
2023-03-12T19:23:12.076Z,422.00
2023-03-12T19:27:12.250Z,428.00
2023-03-12T19:31:12.464Z,426.00
2023-03-12T19:35:12.736Z,426.00
2023-03-12T19:39:21.152Z,424.00
2023-03-12T19:43:13.859Z,424.00
2023-03-12T19:47:12.824Z,427.00
2023-03-12T19:51:12.912Z,427.00
2023-03-12T19:55:13.138Z,427.00
2023-03-12T19:59:13.309Z,425.00
2023-03-12T20:03:13.587Z,430.00
2023-03-12T20:07:13.722Z,433.00
2023-03-12T20:11:13.906Z,433.00
2023-03-12T20:15:14.114Z,438.00
2023-03-12T20:19:14.303Z,431.00
2023-03-12T20:23:14.546Z,431.00
2023-03-12T20:27:14.702Z,431.00
2023-03-12T20:31:14.915Z,436.00
2023-03-12T20:35:15.097Z,428.00
2023-03-12T20:39:15.352Z,427.00
2023-03-12T20:43:15.319Z,429.00
2023-03-12T20:47:15.320Z,429.00
2023-03-12T20:51:15.266Z,436.00
2023-03-12T20:55:15.214Z,433.00
2023-03-12T20:59:15.174Z,431.00
2023-03-12T21:03:15.121Z,431.00
2023-03-12T21:07:15.114Z,438.00
2023-03-12T21:11:15.026Z,434.00
2023-03-12T21:15:15.013Z,433.00
2023-03-12T21:19:14.990Z,430.00
2023-03-12T21:23:15.076Z,429.00
2023-03-12T21:27:14.938Z,430.00
2023-03-12T21:31:14.994Z,434.00
2023-03-12T21:35:14.867Z,430.00
2023-03-12T21:39:14.794Z,431.00
2023-03-12T21:43:14.747Z,430.00
2023-03-12T21:47:14.715Z,431.00
2023-03-12T21:51:14.674Z,428.00
2023-03-12T21:55:14.659Z,428.00
2023-03-12T21:59:14.693Z,434.00
2023-03-12T22:03:14.640Z,434.00
2023-03-12T22:07:14.619Z,433.00
2023-03-12T22:11:45.908Z,452.00
2023-03-12T22:15:45.971Z,447.00
2023-03-12T22:19:45.831Z,440.00
2023-03-12T22:23:45.788Z,438.00
2023-03-12T22:27:45.787Z,444.00
2023-03-12T22:31:45.732Z,443.00
2023-03-12T22:35:45.718Z,440.00
2023-03-12T22:39:45.654Z,441.00
2023-03-12T22:43:45.625Z,440.00
2023-03-12T22:47:45.582Z,444.00
2023-03-12T22:51:45.523Z,447.00
2023-03-12T22:55:45.502Z,446.00
2023-03-12T22:59:45.650Z,442.00
2023-03-12T23:03:45.619Z,444.00
2023-03-12T23:07:45.619Z,442.00
2023-03-12T23:11:45.550Z,446.00
2023-03-12T23:15:45.511Z,441.00
2023-03-12T23:19:45.466Z,442.00
2023-03-12T23:23:45.446Z,438.00
2023-03-12T23:27:45.421Z,439.00
2023-03-12T23:31:45.426Z,442.00
2023-03-12T23:35:45.391Z,444.00
2023-03-12T23:39:54.449Z,443.00
2023-03-12T23:43:46.255Z,441.00
2023-03-12T23:47:45.231Z,439.00
2023-03-12T23:51:45.394Z,438.00
2023-03-12T23:55:45.351Z,433.00
2023-03-12T23:59:45.314Z,435.00
